Time;durP1;ratioP1;P1;durP2;ratioP2;P2;SDS_P1;SDS_P2;PMS_P1;PMS_P2;Temp;Humidity;BMP_temperature;BMP_pressure;BME280_temperature;BME280_humidity;BME280_pressure;Samples;Min_cycle;Max_cycle;Signal;HPM_P1;HPM_P2
2022/09/21 00:00:40;;;;;;;1.23;0.70;;;;;;;;;;4998020;28;20247;-60
2022/09/21 00:03:07;;;;;;;0.70;0.70;;;;;;;;;;4983023;28;20311;-59
2022/09/21 00:05:34;;;;;;;0.70;0.70;;;;;;;;;;4977870;28;20280;-58
2022/09/21 00:08:01;;;;;;;0.60;0.60;;;;;;;;;;4995928;28;20228;-59
2022/09/21 00:10:28;;;;;;;1.93;0.80;;;;;;;;;;5000972;28;20684;-59
2022/09/21 00:12:55;;;;;;;0.80;0.70;;;;;;;;;;4998431;28;20263;-59
2022/09/21 00:15:22;;;;;;;0.73;0.63;;;;;;;;;;4997088;28;20300;-58
2022/09/21 00:17:52;;;;;;;1.50;0.70;;;;;;;;;;4999141;28;20231;-59
2022/09/21 00:20:20;;;;;;;0.53;0.53;;;;;;;;;;4995195;28;21412;-59
2022/09/21 00:22:47;;;;;;;0.80;0.70;;;;;;;;;;4980510;28;20262;-59
2022/09/21 00:25:13;;;;;;;0.60;0.53;;;;;;;;;;4996058;28;20652;-59
2022/09/21 00:27:40;;;;;;;0.80;0.80;;;;;;;;;;4974327;28;20638;-58
2022/09/21 00:30:07;;;;;;;1.90;0.83;;;;;;;;;;4980438;28;20236;-58
2022/09/21 00:32:36;;;;;;;0.77;0.63;;;;;;;;;;4996947;28;20262;-59
2022/09/21 00:35:06;;;;;;;0.60;0.60;;;;;;;;;;4985190;28;20307;-61
2022/09/21 00:37:33;;;;;;;1.20;0.90;;;;;;;;;;4979982;28;20292;-59
2022/09/21 00:39:59;;;;;;;0.80;0.80;;;;;;;;;;4998458;28;20224;-61
2022/09/21 00:42:29;;;;;;;0.97;0.70;;;;;;;;;;4996741;28;20212;-61
2022/09/21 00:44:55;;;;;;;0.60;0.60;;;;;;;;;;4979757;28;20239;-59
2022/09/21 00:47:41;;;;;;;0.83;0.70;;;;;;;;;;5000203;28;20208;-63
2022/09/21 00:50:10;;;;;;;0.97;0.80;;;;;;;;;;4991159;28;20498;-62
2022/09/21 00:52:42;;;;;;;0.73;0.60;;;;;;;;;;4993300;28;20263;-63
2022/09/21 00:55:17;;;;;;;1.10;0.80;;;;;;;;;;4999703;28;20667;-61
2022/09/21 00:57:46;;;;;;;0.63;0.60;;;;;;;;;;4989025;28;20199;-58
2022/09/21 01:00:13;;;;;;;0.60;0.60;;;;;;;;;;5002132;28;20247;-63
2022/09/21 01:02:40;;;;;;;1.00;0.70;;;;;;;;;;5007909;28;20671;-61
2022/09/21 01:05:07;;;;;;;0.90;0.67;;;;;;;;;;5002947;28;20235;-61
2022/09/21 01:07:36;;;;;;;0.60;0.60;;;;;;;;;;5009313;28;20228;-61
2022/09/21 01:10:12;;;;;;;0.77;0.73;;;;;;;;;;4985743;28;20292;-63
2022/09/21 01:13:02;;;;;;;0.70;0.70;;;;;;;;;;4999225;28;20252;-58
2022/09/21 01:15:49;;;;;;;0.80;0.80;;;;;;;;;;4993901;28;20244;-61
2022/09/21 01:18:30;;;;;;;1.00;0.73;;;;;;;;;;4995649;28;20223;-64
2022/09/21 01:21:25;;;;;;;0.70;0.57;;;;;;;;;;4999953;28;20228;-60
2022/09/21 01:24:14;;;;;;;0.53;0.50;;;;;;;;;;4982088;28;20222;-61
2022/09/21 01:26:53;;;;;;;0.83;0.80;;;;;;;;;;5001478;28;20243;-60
2022/09/21 01:29:21;;;;;;;0.73;0.60;;;;;;;;;;5000402;28;20247;-63
2022/09/21 01:31:59;;;;;;;0.57;0.57;;;;;;;;;;5006013;28;20251;-60
2022/09/21 01:34:33;;;;;;;0.70;0.70;;;;;;;;;;4984022;28;20255;-59
2022/09/21 01:37:05;;;;;;;0.60;0.60;;;;;;;;;;4986821;28;20544;-60
2022/09/21 01:39:33;;;;;;;1.00;0.80;;;;;;;;;;5004308;28;20824;-59
2022/09/21 01:42:01;;;;;;;1.80;0.73;;;;;;;;;;4985699;28;20262;-58
2022/09/21 01:44:32;;;;;;;0.80;0.80;;;;;;;;;;4980173;28;20732;-61
2022/09/21 01:47:00;;;;;;;0.80;0.67;;;;;;;;;;5006595;28;20227;-61
2022/09/21 01:49:33;;;;;;;0.67;0.67;;;;;;;;;;4991641;28;20543;-64
2022/09/21 01:52:04;;;;;;;0.53;0.50;;;;;;;;;;4985051;28;20280;-61
2022/09/21 01:54:41;;;;;;;0.90;0.70;;;;;;;;;;4988045;28;20240;-60
2022/09/21 01:57:14;;;;;;;0.57;0.57;;;;;;;;;;4986592;28;20196;-58
2022/09/21 01:59:48;;;;;;;1.53;0.80;;;;;;;;;;4973785;28;20235;-60
2022/09/21 02:02:43;;;;;;;0.67;0.63;;;;;;;;;;4989164;28;20301;-60
2022/09/21 02:05:10;;;;;;;1.40;0.77;;;;;;;;;;4994599;28;20247;-61
2022/09/21 02:07:38;;;;;;;0.53;0.53;;;;;;;;;;4995634;28;20743;-62
2022/09/21 02:10:06;;;;;;;0.60;0.60;;;;;;;;;;4976737;28;20279;-60
2022/09/21 02:12:33;;;;;;;0.60;0.60;;;;;;;;;;4977636;28;20255;-62
2022/09/21 02:15:00;;;;;;;0.70;0.70;;;;;;;;;;5005011;28;20772;-60
2022/09/21 02:17:35;;;;;;;0.60;0.60;;;;;;;;;;4988952;28;20231;-61
2022/09/21 02:20:21;;;;;;;0.73;0.70;;;;;;;;;;4983583;28;20284;-60
2022/09/21 02:23:11;;;;;;;0.83;0.80;;;;;;;;;;5004280;28;20224;-60
2022/09/21 02:25:49;;;;;;;0.97;0.80;;;;;;;;;;4982619;28;20704;-61
2022/09/21 02:28:34;;;;;;;1.00;0.90;;;;;;;;;;4981255;28;20228;-64
2022/09/21 02:31:12;;;;;;;1.03;0.90;;;;;;;;;;4999065;28;20250;-60
2022/09/21 02:34:04;;;;;;;1.30;0.97;;;;;;;;;;4988278;28;20220;-61
2022/09/21 02:36:36;;;;;;;1.00;0.70;;;;;;;;;;4978641;28;20228;-60
2022/09/21 02:39:09;;;;;;;1.00;0.90;;;;;;;;;;4982082;28;20239;-62
2022/09/21 02:42:09;;;;;;;0.90;0.80;;;;;;;;;;4981973;28;20724;-64
2022/09/21 02:44:39;;;;;;;12.97;1.60;;;;;;;;;;4978152;28;20722;-61
2022/09/21 02:47:22;;;;;;;11.57;2.77;;;;;;;;;;4983181;28;20579;-61
2022/09/21 02:49:52;;;;;;;16.30;1.50;;;;;;;;;;5005837;28;20287;-59
2022/09/21 02:52:19;;;;;;;13.73;1.40;;;;;;;;;;4991398;28;20251;-61
2022/09/21 02:54:49;;;;;;;7.07;1.30;;;;;;;;;;4981478;28;20303;-58
2022/09/21 02:57:17;;;;;;;5.87;1.13;;;;;;;;;;4999846;28;20235;-58
2022/09/21 02:59:44;;;;;;;6.40;1.30;;;;;;;;;;4978667;28;20658;-57
2022/09/21 03:02:14;;;;;;;7.00;1.20;;;;;;;;;;5001238;28;20619;-59
2022/09/21 03:04:42;;;;;;;6.13;1.00;;;;;;;;;;4992980;28;20197;-61
2022/09/21 03:07:09;;;;;;;7.83;1.20;;;;;;;;;;4985498;28;20192;-61
2022/09/21 03:09:35;;;;;;;6.70;1.03;;;;;;;;;;4974997;28;20233;-60
2022/09/21 03:12:02;;;;;;;7.17;1.20;;;;;;;;;;4987644;28;20703;-60
2022/09/21 03:14:28;;;;;;;4.90;1.27;;;;;;;;;;4999773;28;20636;-60
2022/09/21 03:16:54;;;;;;;4.03;1.10;;;;;;;;;;5000309;28;20239;-57
2022/09/21 03:19:21;;;;;;;7.50;1.00;;;;;;;;;;4992600;28;20224;-60
2022/09/21 03:21:47;;;;;;;7.40;1.30;;;;;;;;;;4980781;28;20307;-59
2022/09/21 03:24:44;;;;;;;8.57;1.20;;;;;;;;;;4994076;28;20274;-59
2022/09/21 03:27:00;;;;;;;4.67;1.43;;;;;;;;;;5007006;28;20239;-61
2022/09/21 03:29:26;;;;;;;6.27;1.03;;;;;;;;;;5007435;28;20196;-60
2022/09/21 03:31:54;;;;;;;7.10;1.30;;;;;;;;;;5005195;28;20290;-58
2022/09/21 03:34:21;;;;;;;3.10;1.17;;;;;;;;;;5004430;28;20236;-59
2022/09/21 03:36:48;;;;;;;5.70;1.47;;;;;;;;;;5000750;28;20239;-57
2022/09/21 03:39:14;;;;;;;4.20;0.87;;;;;;;;;;5008496;28;20234;-59
2022/09/21 03:41:40;;;;;;;3.07;1.00;;;;;;;;;;5004495;28;20628;-61
2022/09/21 03:44:07;;;;;;;7.33;1.40;;;;;;;;;;5003154;28;20251;-61
2022/09/21 03:46:34;;;;;;;4.97;1.60;;;;;;;;;;5000800;28;20204;-59
2022/09/21 03:49:01;;;;;;;4.27;1.10;;;;;;;;;;4999096;28;20252;-58
2022/09/21 03:51:31;;;;;;;4.53;0.90;;;;;;;;;;4991469;28;20200;-59
2022/09/21 03:53:57;;;;;;;3.60;1.00;;;;;;;;;;5000309;28;20255;-58
2022/09/21 03:56:24;;;;;;;4.53;1.17;;;;;;;;;;5003181;28;20252;-58
2022/09/21 03:58:50;;;;;;;3.07;1.13;;;;;;;;;;4997668;28;20239;-60
2022/09/21 04:01:16;;;;;;;4.20;1.00;;;;;;;;;;4998267;28;20225;-58
2022/09/21 04:03:43;;;;;;;5.97;1.20;;;;;;;;;;4991607;28;20220;-57
2022/09/21 04:06:10;;;;;;;2.97;1.10;;;;;;;;;;4997117;28;20235;-58
2022/09/21 04:08:38;;;;;;;5.53;1.17;;;;;;;;;;5006324;28;20224;-58
2022/09/21 04:11:11;;;;;;;2.73;0.90;;;;;;;;;;5006736;28;20235;-60
2022/09/21 04:13:38;;;;;;;1.53;0.93;;;;;;;;;;5000430;28;20259;-59
2022/09/21 04:16:04;;;;;;;2.83;0.90;;;;;;;;;;4997049;28;20258;-57
2022/09/21 04:18:31;;;;;;;2.70;0.70;;;;;;;;;;5005231;28;20653;-58
2022/09/21 04:20:58;;;;;;;5.03;0.70;;;;;;;;;;5006029;28;20732;-56
2022/09/21 04:23:24;;;;;;;4.03;1.20;;;;;;;;;;5005790;28;20244;-57
2022/09/21 04:25:52;;;;;;;2.27;0.87;;;;;;;;;;5005725;28;20295;-57
2022/09/21 04:28:19;;;;;;;1.97;0.90;;;;;;;;;;5008750;28;20632;-57
2022/09/21 04:30:46;;;;;;;3.37;1.00;;;;;;;;;;5004379;28;20237;-58
2022/09/21 04:33:13;;;;;;;4.40;1.10;;;;;;;;;;5005283;28;20231;-58
2022/09/21 04:35:39;;;;;;;4.87;1.10;;;;;;;;;;5004958;28;20343;-57
2022/09/21 04:38:06;;;;;;;2.53;1.10;;;;;;;;;;5007038;28;20691;-58
2022/09/21 04:40:32;;;;;;;2.07;0.80;;;;;;;;;;5006176;28;20218;-58
2022/09/21 04:42:59;;;;;;;2.53;1.10;;;;;;;;;;5007804;28;20295;-58
2022/09/21 04:45:25;;;;;;;2.33;1.07;;;;;;;;;;5000839;28;20707;-57
2022/09/21 04:47:51;;;;;;;1.90;0.90;;;;;;;;;;5000559;28;20303;-58
2022/09/21 04:50:18;;;;;;;2.20;0.90;;;;;;;;;;5004155;28;20636;-58
2022/09/21 04:52:45;;;;;;;2.10;0.80;;;;;;;;;;4984313;28;20256;-58
2022/09/21 04:55:11;;;;;;;1.63;0.80;;;;;;;;;;5004092;28;20764;-58
2022/09/21 04:57:37;;;;;;;5.00;1.00;;;;;;;;;;5012730;28;20235;-59
2022/09/21 05:00:04;;;;;;;3.77;1.00;;;;;;;;;;5005487;28;20295;-58
2022/09/21 05:02:31;;;;;;;1.77;0.87;;;;;;;;;;5005080;28;20575;-59
2022/09/21 05:04:57;;;;;;;2.77;0.90;;;;;;;;;;4984890;28;20224;-60
2022/09/21 05:07:24;;;;;;;5.13;1.10;;;;;;;;;;4989705;28;20236;-58
2022/09/21 05:10:02;;;;;;;1.97;0.90;;;;;;;;;;5004274;28;20613;-60
2022/09/21 05:12:32;;;;;;;2.10;0.90;;;;;;;;;;5000407;28;20252;-58
2022/09/21 05:14:59;;;;;;;1.07;0.90;;;;;;;;;;4982154;28;20891;-59
2022/09/21 05:17:26;;;;;;;4.87;1.00;;;;;;;;;;4957025;28;20250;-58
2022/09/21 05:19:52;;;;;;;2.03;0.80;;;;;;;;;;5007396;28;20239;-58
2022/09/21 05:22:19;;;;;;;2.27;1.00;;;;;;;;;;5005352;28;20785;-58
2022/09/21 05:24:46;;;;;;;3.03;1.00;;;;;;;;;;4998822;28;20200;-58
2022/09/21 05:27:12;;;;;;;2.60;0.80;;;;;;;;;;5001847;28;20231;-57
2022/09/21 05:29:39;;;;;;;1.30;0.90;;;;;;;;;;4981025;28;20251;-57
2022/09/21 05:32:11;;;;;;;3.63;0.90;;;;;;;;;;4995172;28;20233;-57
2022/09/21 05:34:52;;;;;;;1.77;0.93;;;;;;;;;;4992631;28;20229;-59
2022/09/21 05:37:44;;;;;;;1.80;0.80;;;;;;;;;;4996142;28;20248;-56
2022/09/21 05:40:12;;;;;;;1.33;0.80;;;;;;;;;;4970226;28;20200;-56
2022/09/21 05:42:38;;;;;;;1.73;1.03;;;;;;;;;;4999367;28;20606;-56
2022/09/21 05:45:06;;;;;;;3.47;0.77;;;;;;;;;;4997160;28;20247;-56
2022/09/21 05:47:38;;;;;;;2.93;0.93;;;;;;;;;;4989410;28;20234;-54
2022/09/21 05:50:26;;;;;;;1.47;0.80;;;;;;;;;;4998037;28;20192;-56
2022/09/21 05:53:02;;;;;;;2.33;0.90;;;;;;;;;;5002695;28;20220;-55
2022/09/21 05:55:56;;;;;;;1.17;0.80;;;;;;;;;;5011238;28;20266;-56
2022/09/21 05:58:43;;;;;;;1.27;0.83;;;;;;;;;;4997902;28;20232;-56
2022/09/21 06:01:23;;;;;;;2.20;1.00;;;;;;;;;;5003242;28;20215;-57
2022/09/21 06:03:50;;;;;;;1.83;1.10;;;;;;;;;;4985121;28;20738;-57
2022/09/21 06:06:17;;;;;;;4.13;0.90;;;;;;;;;;4997751;28;20680;-56
2022/09/21 06:08:43;;;;;;;2.33;0.80;;;;;;;;;;4968591;28;20632;-57
2022/09/21 06:11:10;;;;;;;2.50;0.73;;;;;;;;;;5009543;28;20251;-59
2022/09/21 06:13:37;;;;;;;2.20;0.80;;;;;;;;;;5011406;28;20649;-59
2022/09/21 06:16:03;;;;;;;1.20;0.90;;;;;;;;;;5003501;28;20252;-58
2022/09/21 06:18:30;;;;;;;2.07;0.80;;;;;;;;;;4987731;28;20730;-56
2022/09/21 06:20:56;;;;;;;1.10;0.80;;;;;;;;;;5002596;28;20647;-56
2022/09/21 06:23:22;;;;;;;1.87;0.97;;;;;;;;;;5010511;28;20235;-57
2022/09/21 06:25:52;;;;;;;2.17;0.80;;;;;;;;;;5005081;28;20790;-58
2022/09/21 06:28:24;;;;;;;2.00;0.80;;;;;;;;;;5002033;28;20196;-57
2022/09/21 06:30:52;;;;;;;2.63;1.00;;;;;;;;;;5002109;28;20250;-56
2022/09/21 06:33:22;;;;;;;2.17;0.83;;;;;;;;;;4997294;28;20216;-56
2022/09/21 06:35:54;;;;;;;2.43;0.90;;;;;;;;;;5000362;28;20424;-56
2022/09/21 06:38:21;;;;;;;1.30;0.80;;;;;;;;;;4981040;28;20239;-56
2022/09/21 06:40:48;;;;;;;0.87;0.77;;;;;;;;;;5006144;28;20266;-57
2022/09/21 06:43:14;;;;;;;0.80;0.80;;;;;;;;;;4987787;28;20251;-58
2022/09/21 06:45:41;;;;;;;1.17;0.80;;;;;;;;;;4981233;28;20197;-54
2022/09/21 06:48:08;;;;;;;1.33;0.87;;;;;;;;;;4992125;28;20196;-57
2022/09/21 06:50:35;;;;;;;1.00;0.90;;;;;;;;;;5000781;28;20224;-57
2022/09/21 06:53:02;;;;;;;1.67;0.70;;;;;;;;;;5005874;28;20619;-56
2022/09/21 06:55:30;;;;;;;3.07;1.00;;;;;;;;;;5002551;28;20228;-58
2022/09/21 06:58:02;;;;;;;1.10;0.80;;;;;;;;;;4999537;28;20211;-56
2022/09/21 07:00:29;;;;;;;2.20;1.37;;;;;;;;;;5002085;28;20287;-57
2022/09/21 07:02:55;;;;;;;1.23;0.90;;;;;;;;;;4990995;28;20255;-55
2022/09/21 07:05:22;;;;;;;1.13;0.80;;;;;;;;;;5008466;28;20235;-56
2022/09/21 07:07:48;;;;;;;0.90;0.63;;;;;;;;;;4994582;28;20236;-58
2022/09/21 07:10:19;;;;;;;1.13;0.80;;;;;;;;;;5005051;28;20212;-56
2022/09/21 07:12:46;;;;;;;0.90;0.80;;;;;;;;;;5005983;28;20231;-57
2022/09/21 07:15:14;;;;;;;1.10;0.80;;;;;;;;;;4995326;28;20632;-56
2022/09/21 07:17:41;;;;;;;1.30;0.90;;;;;;;;;;5002559;28;20216;-58
2022/09/21 07:20:08;;;;;;;1.63;0.80;;;;;;;;;;4975084;28;20271;-56
2022/09/21 07:22:35;;;;;;;1.00;0.73;;;;;;;;;;5001029;28;20227;-56
2022/09/21 07:25:03;;;;;;;1.47;0.90;;;;;;;;;;5007983;28;20710;-56
2022/09/21 07:27:30;;;;;;;1.27;0.70;;;;;;;;;;4988598;28;20230;-55
2022/09/21 07:29:56;;;;;;;2.70;1.10;;;;;;;;;;4998132;28;20255;-58
2022/09/21 07:32:24;;;;;;;2.17;0.90;;;;;;;;;;5001575;28;20720;-59
2022/09/21 07:34:55;;;;;;;1.13;1.00;;;;;;;;;;4991075;28;20624;-56
2022/09/21 07:37:23;;;;;;;1.53;1.10;;;;;;;;;;5001387;28;20258;-58
2022/09/21 07:39:51;;;;;;;2.53;1.87;;;;;;;;;;5001955;28;20232;-59
2022/09/21 07:42:19;;;;;;;2.10;1.70;;;;;;;;;;5004871;28;20266;-59
2022/09/21 07:44:46;;;;;;;1.00;0.90;;;;;;;;;;4997971;28;20216;-56
2022/09/21 07:47:13;;;;;;;1.77;0.93;;;;;;;;;;5005666;28;20189;-56
2022/09/21 07:49:40;;;;;;;1.00;0.80;;;;;;;;;;5000614;28;20338;-55
2022/09/21 07:52:07;;;;;;;1.03;0.80;;;;;;;;;;5004982;28;20271;-56
2022/09/21 07:54:36;;;;;;;0.90;0.70;;;;;;;;;;5002585;28;20200;-56
2022/09/21 07:59:48;;;;;;;1.90;0.80;;;;;;;;;;5006277;28;20703;-56
2022/09/21 08:02:14;;;;;;;1.47;1.00;;;;;;;;;;5001413;28;20212;-55
2022/09/21 08:04:40;;;;;;;1.00;0.80;;;;;;;;;;5000035;28;20584;-54
2022/09/21 08:07:07;;;;;;;1.20;1.07;;;;;;;;;;5005315;28;20258;-55
2022/09/21 08:09:34;;;;;;;2.30;1.57;;;;;;;;;;5001255;28;20205;-56
2022/09/21 08:12:00;;;;;;;1.90;1.60;;;;;;;;;;4993629;28;20239;-59
2022/09/21 08:14:28;;;;;;;1.63;0.70;;;;;;;;;;5002548;28;20678;-57
2022/09/21 08:16:54;;;;;;;1.48;0.80;;;;;;;;;;4999854;28;20256;-58
2022/09/21 08:19:24;;;;;;;1.27;0.80;;;;;;;;;;5000804;28;20243;-58
2022/09/21 08:21:50;;;;;;;2.65;2.45;;;;;;;;;;5006253;28;20242;-59
2022/09/21 08:24:25;;;;;;;2.13;1.80;;;;;;;;;;5004241;28;20232;-59
2022/09/21 08:26:51;;;;;;;1.35;0.80;;;;;;;;;;5005498;28;20296;-58
2022/09/21 08:29:18;;;;;;;3.30;0.90;;;;;;;;;;4998660;28;20557;-56
2022/09/21 08:31:45;;;;;;;1.20;0.80;;;;;;;;;;5000557;28;20232;-58
2022/09/21 08:34:12;;;;;;;0.98;0.70;;;;;;;;;;5003765;28;20217;-58
2022/09/21 08:36:38;;;;;;;1.60;1.02;;;;;;;;;;5003255;28;20315;-54
2022/09/21 08:39:06;;;;;;;2.17;1.50;;;;;;;;;;5005246;28;20224;-55
2022/09/21 08:41:39;;;;;;;1.42;1.30;;;;;;;;;;4985133;28;20204;-56
2022/09/21 08:44:44;;;;;;;0.77;0.75;;;;;;;;;;5004834;28;20668;-56
2022/09/21 08:47:15;;;;;;;1.25;1.08;;;;;;;;;;4989277;28;20232;-58
2022/09/21 08:49:46;;;;;;;4.18;1.58;;;;;;;;;;4987441;28;20908;-56
2022/09/21 08:52:15;;;;;;;1.42;0.80;;;;;;;;;;5000480;28;20255;-56
2022/09/21 08:55:05;;;;;;;2.85;0.90;;;;;;;;;;4986867;28;20255;-57
2022/09/21 08:57:32;;;;;;;0.82;0.75;;;;;;;;;;5004822;28;20311;-59
2022/09/21 09:00:07;;;;;;;0.70;0.70;;;;;;;;;;4984307;28;20283;-58
2022/09/21 09:03:09;;;;;;;0.77;0.70;;;;;;;;;;4987292;28;20219;-57
2022/09/21 09:05:42;;;;;;;1.38;1.00;;;;;;;;;;4990724;28;20224;-59
2022/09/21 09:08:25;;;;;;;1.25;0.80;;;;;;;;;;5005495;28;20225;-58
2022/09/21 09:11:32;;;;;;;1.15;0.80;;;;;;;;;;5000334;28;20239;-56
2022/09/21 09:14:07;;;;;;;0.70;0.70;;;;;;;;;;5000212;28;20244;-58
2022/09/21 09:16:52;;;;;;;1.00;0.73;;;;;;;;;;4999146;28;20770;-56
2022/09/21 09:19:34;;;;;;;0.73;0.73;;;;;;;;;;5004282;28;20235;-57
2022/09/21 09:22:03;;;;;;;1.08;0.80;;;;;;;;;;4985869;28;20310;-59
2022/09/21 09:24:42;;;;;;;1.33;0.70;;;;;;;;;;4985289;28;20224;-58
2022/09/21 09:27:18;;;;;;;1.83;0.90;;;;;;;;;;5007577;28;20223;-59
2022/09/21 09:29:54;;;;;;;1.42;0.60;;;;;;;;;;4989778;28;20582;-57
2022/09/21 09:32:59;;;;;;;0.85;0.70;;;;;;;;;;5003580;28;20228;-59
2022/09/21 09:35:27;;;;;;;1.63;0.95;;;;;;;;;;4998974;28;20201;-57
2022/09/21 09:37:57;;;;;;;1.13;0.70;;;;;;;;;;5012319;28;20311;-59
2022/09/21 09:40:54;;;;;;;0.85;0.60;;;;;;;;;;4994252;28;20181;-60
2022/09/21 09:43:57;;;;;;;0.63;0.60;;;;;;;;;;5027683;28;20223;-57
2022/09/21 09:47:01;;;;;;;2.03;0.70;;;;;;;;;;4995677;28;20227;-59
2022/09/21 09:49:49;;;;;;;1.40;1.02;;;;;;;;;;4999768;28;20211;-57
2022/09/21 09:52:16;;;;;;;0.93;0.70;;;;;;;;;;4999084;28;20259;-59
2022/09/21 09:54:43;;;;;;;1.00;0.60;;;;;;;;;;4997718;28;20636;-59
2022/09/21 09:57:10;;;;;;;0.95;0.70;;;;;;;;;;5008399;28;20661;-56
2022/09/21 09:59:53;;;;;;;0.80;0.63;;;;;;;;;;4988366;28;20230;-56
2022/09/21 10:02:22;;;;;;;0.80;0.75;;;;;;;;;;4982550;28;20655;-58
2022/09/21 10:05:01;;;;;;;0.95;0.65;;;;;;;;;;5007914;28;20235;-58
2022/09/21 10:07:34;;;;;;;1.17;0.80;;;;;;;;;;5005847;28;20223;-58
2022/09/21 10:10:00;;;;;;;0.90;0.73;;;;;;;;;;5007052;28;20232;-56
2022/09/21 10:12:26;;;;;;;0.75;0.70;;;;;;;;;;4996960;28;20221;-55
2022/09/21 10:14:59;;;;;;;0.95;0.70;;;;;;;;;;5003603;28;20550;-56
2022/09/21 10:17:26;;;;;;;0.85;0.60;;;;;;;;;;4984058;28;20253;-55
2022/09/21 10:20:00;;;;;;;1.33;0.70;;;;;;;;;;4981662;28;20236;-55
2022/09/21 10:22:27;;;;;;;0.85;0.65;;;;;;;;;;4997132;28;20571;-53
2022/09/21 10:24:53;;;;;;;1.13;0.70;;;;;;;;;;4990383;28;20641;-56
2022/09/21 10:27:26;;;;;;;0.75;0.75;;;;;;;;;;5000818;28;20224;-55
2022/09/21 10:29:53;;;;;;;0.80;0.70;;;;;;;;;;4982152;28;20239;-57
2022/09/21 10:32:25;;;;;;;2.03;0.70;;;;;;;;;;5006679;28;20225;-57
2022/09/21 10:35:04;;;;;;;1.73;0.80;;;;;;;;;;5000464;28;20243;-56
2022/09/21 10:37:41;;;;;;;1.63;0.60;;;;;;;;;;5002104;28;20310;-57
2022/09/21 10:40:16;;;;;;;0.70;0.65;;;;;;;;;;4981186;28;20234;-57
2022/09/21 10:42:43;;;;;;;1.00;0.68;;;;;;;;;;5008435;28;20632;-57
2022/09/21 10:45:24;;;;;;;1.40;0.63;;;;;;;;;;4980758;28;20699;-56
2022/09/21 10:47:55;;;;;;;1.25;0.70;;;;;;;;;;5003329;28;20236;-59
2022/09/21 10:50:34;;;;;;;0.93;0.68;;;;;;;;;;4984369;28;20219;-58
2022/09/21 10:53:27;;;;;;;0.60;0.60;;;;;;;;;;4988611;28;20244;-59
2022/09/21 10:56:17;;;;;;;0.82;0.70;;;;;;;;;;4988723;28;20579;-59
2022/09/21 10:59:32;;;;;;;0.98;0.70;;;;;;;;;;4974451;28;20192;-57
2022/09/21 11:01:59;;;;;;;0.70;0.60;;;;;;;;;;4975137;28;20295;-56
2022/09/21 11:04:30;;;;;;;1.08;0.68;;;;;;;;;;5006109;28;20227;-57
2022/09/21 11:07:16;;;;;;;0.70;0.60;;;;;;;;;;4983487;28;20228;-56
2022/09/21 11:10:08;;;;;;;1.02;0.77;;;;;;;;;;4986046;28;20618;-53
2022/09/21 11:13:16;;;;;;;0.60;0.60;;;;;;;;;;5007766;28;20220;-55
2022/09/21 11:15:51;;;;;;;0.95;0.73;;;;;;;;;;4970806;28;20236;-55
2022/09/21 11:18:23;;;;;;;0.43;0.43;;;;;;;;;;5008434;28;20226;-53
2022/09/21 11:21:04;;;;;;;1.00;0.70;;;;;;;;;;5003659;28;20227;-54
2022/09/21 11:23:52;;;;;;;0.80;0.70;;;;;;;;;;4988408;28;20243;-56
2022/09/21 11:26:31;;;;;;;0.80;0.70;;;;;;;;;;5002424;28;20238;-54
2022/09/21 11:29:11;;;;;;;0.60;0.60;;;;;;;;;;5006797;28;20200;-55
2022/09/21 11:31:51;;;;;;;0.80;0.70;;;;;;;;;;4985802;28;20208;-56
2022/09/21 11:34:33;;;;;;;0.70;0.70;;;;;;;;;;4999524;28;20227;-53
2022/09/21 11:37:18;;;;;;;1.10;0.80;;;;;;;;;;4995374;28;20335;-54
2022/09/21 11:39:57;;;;;;;0.73;0.68;;;;;;;;;;4997263;28;20289;-57
2022/09/21 11:42:48;;;;;;;1.20;0.70;;;;;;;;;;4998421;28;20259;-55
2022/09/21 11:45:42;;;;;;;0.82;0.60;;;;;;;;;;5005091;28;20292;-56
2022/09/21 11:48:21;;;;;;;0.80;0.60;;;;;;;;;;5006245;28;20236;-56
2022/09/21 11:51:16;;;;;;;1.75;0.70;;;;;;;;;;4998873;28;20604;-56
2022/09/21 11:54:06;;;;;;;0.60;0.60;;;;;;;;;;4986736;28;20588;-53
2022/09/21 11:56:42;;;;;;;0.60;0.60;;;;;;;;;;5000344;28;20219;-56
2022/09/21 11:59:23;;;;;;;0.60;0.50;;;;;;;;;;5002062;28;20258;-56
2022/09/21 12:02:15;;;;;;;0.60;0.60;;;;;;;;;;4988879;28;20227;-56
2022/09/21 12:04:59;;;;;;;1.25;0.70;;;;;;;;;;5002438;28;20192;-55
2022/09/21 12:07:45;;;;;;;1.25;0.70;;;;;;;;;;4987636;28;20193;-54
2022/09/21 12:10:34;;;;;;;0.55;0.55;;;;;;;;;;4995430;28;20204;-53
2022/09/21 12:13:07;;;;;;;0.52;0.50;;;;;;;;;;4997675;28;20240;-56
2022/09/21 12:15:41;;;;;;;1.15;0.63;;;;;;;;;;4995487;28;20234;-57
2022/09/21 12:18:14;;;;;;;0.88;0.68;;;;;;;;;;4999593;28;20695;-53
2022/09/21 12:21:10;;;;;;;1.00;0.70;;;;;;;;;;5003695;28;20248;-55
2022/09/21 12:23:53;;;;;;;0.80;0.63;;;;;;;;;;4994882;28;20770;-55
2022/09/21 12:26:25;;;;;;;0.57;0.57;;;;;;;;;;4983003;28;20715;-55
2022/09/21 12:28:57;;;;;;;0.60;0.60;;;;;;;;;;5007685;28;20223;-53
2022/09/21 12:31:29;;;;;;;0.90;0.68;;;;;;;;;;4981091;28;20298;-56
2022/09/21 12:34:02;;;;;;;1.00;0.70;;;;;;;;;;4986508;28;20727;-52
2022/09/21 12:36:36;;;;;;;1.02;0.70;;;;;;;;;;4987192;28;20235;-54
2022/09/21 12:39:24;;;;;;;0.98;0.70;;;;;;;;;;4996883;28;20243;-56
2022/09/21 12:41:55;;;;;;;1.13;0.75;;;;;;;;;;4984002;28;20730;-55
2022/09/21 12:44:50;;;;;;;1.30;0.70;;;;;;;;;;4990110;28;20243;-55
2022/09/21 12:47:40;;;;;;;1.60;0.50;;;;;;;;;;4986272;28;20250;-56
2022/09/21 12:50:21;;;;;;;1.02;0.63;;;;;;;;;;4989421;28;20231;-56
2022/09/21 12:52:48;;;;;;;0.52;0.52;;;;;;;;;;4987489;28;20303;-56
2022/09/21 12:55:41;;;;;;;2.83;0.70;;;;;;;;;;5008006;28;20250;-55
2022/09/21 12:58:23;;;;;;;1.15;0.65;;;;;;;;;;4987517;28;20247;-54
2022/09/21 13:01:15;;;;;;;2.30;0.63;;;;;;;;;;5001896;28;20223;-54
2022/09/21 13:03:56;;;;;;;1.38;0.70;;;;;;;;;;4989115;28;20712;-56
2022/09/21 13:06:50;;;;;;;0.95;0.50;;;;;;;;;;5012034;28;20232;-53
2022/09/21 13:09:18;;;;;;;1.85;0.70;;;;;;;;;;5008057;28;20212;-53
2022/09/21 13:11:55;;;;;;;0.95;0.70;;;;;;;;;;4982450;28;20227;-56
2022/09/21 13:14:24;;;;;;;1.08;0.77;;;;;;;;;;5005924;28;20228;-55
2022/09/21 13:16:56;;;;;;;1.20;0.60;;;;;;;;;;4987575;28;20270;-55
2022/09/21 13:19:24;;;;;;;1.17;0.80;;;;;;;;;;4989309;28;20755;-53
2022/09/21 13:22:13;;;;;;;0.50;0.50;;;;;;;;;;4997108;28;20237;-55
2022/09/21 13:24:41;;;;;;;1.02;0.70;;;;;;;;;;4982758;28;20220;-55
2022/09/21 13:27:08;;;;;;;1.45;0.57;;;;;;;;;;4991997;28;20254;-53
2022/09/21 13:29:35;;;;;;;3.45;0.80;;;;;;;;;;4999732;28;20580;-55
2022/09/21 13:32:11;;;;;;;1.10;0.60;;;;;;;;;;4983142;28;20239;-53
2022/09/21 13:34:39;;;;;;;2.15;0.70;;;;;;;;;;5002217;28;20645;-55
2022/09/21 13:37:09;;;;;;;0.88;0.70;;;;;;;;;;5006503;28;20196;-53
2022/09/21 13:39:56;;;;;;;1.02;0.60;;;;;;;;;;5008208;28;20234;-55
2022/09/21 13:42:29;;;;;;;0.70;0.40;;;;;;;;;;5010207;28;20232;-56
2022/09/21 13:44:59;;;;;;;1.85;0.70;;;;;;;;;;5008615;28;20298;-53
2022/09/21 13:47:34;;;;;;;1.15;0.70;;;;;;;;;;4984914;28;20675;-56
2022/09/21 13:50:03;;;;;;;1.02;0.57;;;;;;;;;;4987932;28;20698;-56
2022/09/21 13:52:38;;;;;;;0.85;0.50;;;;;;;;;;4989678;28;20220;-55
2022/09/21 13:55:21;;;;;;;0.95;0.60;;;;;;;;;;5001295;28;20238;-56
2022/09/21 13:57:50;;;;;;;0.63;0.50;;;;;;;;;;4990781;28;20769;-56
2022/09/21 14:00:16;;;;;;;1.35;0.60;;;;;;;;;;5005586;28;20204;-56
2022/09/21 14:03:21;;;;;;;1.27;0.73;;;;;;;;;;5003673;28;20700;-56
2022/09/21 14:05:50;;;;;;;0.75;0.50;;;;;;;;;;4998191;28;20224;-55
2022/09/21 14:08:20;;;;;;;0.85;0.60;;;;;;;;;;5005389;28;20192;-56
2022/09/21 14:10:57;;;;;;;1.50;0.60;;;;;;;;;;5008223;28;20224;-56
2022/09/21 14:13:31;;;;;;;0.50;0.50;;;;;;;;;;4987661;28;20247;-54
2022/09/21 14:16:29;;;;;;;0.80;0.60;;;;;;;;;;5008047;28;20679;-57
2022/09/21 14:18:55;;;;;;;0.80;0.73;;;;;;;;;;4997748;28;20232;-53
2022/09/21 14:21:22;;;;;;;0.43;0.43;;;;;;;;;;4999950;28;20192;-56
2022/09/21 14:24:15;;;;;;;0.70;0.60;;;;;;;;;;4983456;28;20263;-55
2022/09/21 14:26:42;;;;;;;1.58;0.80;;;;;;;;;;5003758;28;20281;-55
2022/09/21 14:29:43;;;;;;;0.60;0.55;;;;;;;;;;5002456;28;20228;-55
2022/09/21 14:32:15;;;;;;;0.57;0.55;;;;;;;;;;4988806;28;20239;-56
2022/09/21 14:34:44;;;;;;;0.60;0.60;;;;;;;;;;4988589;28;20197;-55
2022/09/21 14:37:32;;;;;;;0.88;0.70;;;;;;;;;;5011029;28;20296;-56
2022/09/21 14:40:04;;;;;;;3.08;0.70;;;;;;;;;;4996871;28;20235;-53
2022/09/21 14:42:31;;;;;;;0.70;0.52;;;;;;;;;;5009284;28;20236;-52
2022/09/21 14:45:00;;;;;;;0.70;0.60;;;;;;;;;;5003784;28;20239;-55
2022/09/21 14:47:38;;;;;;;0.50;0.50;;;;;;;;;;4973160;28;20244;-53
2022/09/21 14:50:18;;;;;;;0.73;0.47;;;;;;;;;;5005176;28;20240;-56
2022/09/21 14:52:56;;;;;;;1.00;0.70;;;;;;;;;;5004311;28;20785;-55
2022/09/21 14:55:48;;;;;;;0.55;0.55;;;;;;;;;;4986391;28;20196;-55
2022/09/21 14:58:37;;;;;;;0.77;0.60;;;;;;;;;;4986060;28;20649;-56
2022/09/21 15:01:32;;;;;;;0.60;0.60;;;;;;;;;;4997763;28;20644;-55
2022/09/21 15:04:30;;;;;;;0.60;0.50;;;;;;;;;;5002054;28;20299;-57
2022/09/21 15:13:23;;;;;;;0.50;0.50;;;;;;;;;;5006142;28;20299;-58
2022/09/21 15:16:07;;;;;;;0.70;0.60;;;;;;;;;;5002537;28;20204;-56
2022/09/21 15:18:39;;;;;;;0.70;0.57;;;;;;;;;;4989090;28;20220;-56
2022/09/21 15:21:42;;;;;;;0.50;0.43;;;;;;;;;;4997546;28;20306;-57
2022/09/21 15:24:17;;;;;;;0.40;0.40;;;;;;;;;;4948444;28;20251;-55
2022/09/21 15:26:44;;;;;;;0.80;0.60;;;;;;;;;;4986492;28;20646;-58
2022/09/21 15:29:20;;;;;;;0.50;0.50;;;;;;;;;;4998972;28;20251;-56
2022/09/21 15:31:47;;;;;;;0.52;0.50;;;;;;;;;;4998447;28;20212;-56